createdAt,value
2019-02-26T00:01:34.792Z,66.36
2019-02-26T00:04:04.345Z,66.79
2019-02-26T00:06:33.918Z,66.99
2019-02-26T00:09:05.098Z,66.92
2019-02-26T00:11:36.206Z,67.10
2019-02-26T00:14:06.173Z,67.27
2019-02-26T00:16:39.767Z,67.20
2019-02-26T00:19:07.389Z,67.35
2019-02-26T00:21:38.494Z,67.60
2019-02-26T00:24:09.895Z,67.65
2019-02-26T00:26:40.833Z,67.68
2019-02-26T00:29:10.641Z,67.64
2019-02-26T00:31:40.211Z,67.56
2019-02-26T00:34:10.686Z,67.38
2019-02-26T00:36:42.322Z,67.43
2019-02-26T00:39:12.023Z,67.77
2019-02-26T00:41:42.406Z,67.96
2019-02-26T00:44:12.175Z,67.97
2019-02-26T00:46:42.832Z,67.95
2019-02-26T00:49:12.411Z,67.98
2019-02-26T00:51:45.997Z,68.03
2019-02-26T00:54:14.087Z,68.31
2019-02-26T00:56:44.258Z,68.39
2019-02-26T00:59:13.778Z,68.44
2019-02-26T01:01:46.010Z,68.66
2019-02-26T01:04:14.597Z,68.95
2019-02-26T01:06:44.323Z,69.00
2019-02-26T01:09:14.423Z,69.19
2019-02-26T01:11:49.858Z,69.35
2019-02-26T01:14:20.328Z,69.40
2019-02-26T01:16:51.653Z,69.33
2019-02-26T01:19:21.235Z,69.42
2019-02-26T01:21:51.178Z,69.42
2019-02-26T01:24:21.430Z,69.28
2019-02-26T01:26:54.062Z,69.23
2019-02-26T01:29:26.017Z,69.20
2019-02-26T01:31:55.199Z,69.21
2019-02-26T01:34:24.785Z,69.11
2019-02-26T01:36:54.451Z,69.07
2019-02-26T01:39:24.315Z,69.28
2019-02-26T01:41:56.370Z,69.53
2019-02-26T01:44:28.098Z,69.61
2019-02-26T01:46:58.285Z,69.58
2019-02-26T01:49:30.254Z,69.65
2019-02-26T01:52:00.369Z,70.85
2019-02-26T01:54:31.300Z,70.75
2019-02-26T01:57:01.741Z,70.65
2019-02-26T01:59:31.732Z,70.46
2019-02-26T02:02:02.689Z,70.45
2019-02-26T02:04:34.113Z,70.26
2019-02-26T02:07:05.835Z,70.00
2019-02-26T02:09:34.820Z,70.07
2019-02-26T02:12:06.547Z,70.15
2019-02-26T02:14:35.667Z,70.00
2019-02-26T02:17:06.125Z,69.81
2019-02-26T02:19:36.991Z,69.76
2019-02-26T02:22:06.540Z,69.85
2019-02-26T02:24:39.003Z,69.99
2019-02-26T02:27:07.606Z,69.92
2019-02-26T02:29:37.466Z,69.81
2019-02-26T02:32:07.726Z,69.96
2019-02-26T02:34:40.021Z,70.19
2019-02-26T02:37:08.645Z,70.32
2019-02-26T02:39:38.290Z,70.17
2019-02-26T02:42:08.388Z,70.31
2019-02-26T02:44:41.295Z,70.32
2019-02-26T02:47:11.299Z,70.26
2019-02-26T02:49:44.255Z,70.12
2019-02-26T02:52:13.369Z,70.31
2019-02-26T02:54:44.208Z,70.92
2019-02-26T02:57:14.415Z,71.09
2019-02-26T02:59:44.517Z,71.29
2019-02-26T03:02:15.117Z,71.28
2019-02-26T03:04:45.439Z,71.12
2019-02-26T03:07:17.727Z,71.15
2019-02-26T03:09:46.605Z,71.34
2019-02-26T03:12:16.373Z,71.41
2019-02-26T03:14:46.329Z,71.42
2019-02-26T03:17:18.149Z,71.50
2019-02-26T03:19:47.404Z,71.81
2019-02-26T03:22:18.895Z,71.90
2019-02-26T03:24:51.269Z,72.15
2019-02-26T03:27:20.091Z,72.38
2019-02-26T03:29:50.423Z,72.44
2019-02-26T03:32:20.965Z,72.12
2019-02-26T03:34:50.785Z,72.05
2019-02-26T03:37:20.468Z,72.08
2019-02-26T03:39:54.299Z,72.10
2019-02-26T03:42:21.841Z,72.18
2019-02-26T03:44:51.747Z,72.37
2019-02-26T03:47:21.821Z,72.46
2019-02-26T03:49:51.609Z,72.22
2019-02-26T03:52:21.490Z,72.12
2019-02-26T03:54:51.053Z,72.20
2019-02-26T03:57:22.684Z,72.44
2019-02-26T03:59:52.262Z,72.37
2019-02-26T04:02:23.465Z,72.42
2019-02-26T04:04:54.465Z,72.54
2019-02-26T04:07:25.997Z,72.65
2019-02-26T04:09:58.568Z,72.58
2019-02-26T04:12:28.457Z,72.40
2019-02-26T04:14:58.093Z,72.37
2019-02-26T04:17:28.630Z,72.55
2019-02-26T04:19:59.062Z,72.73
2019-02-26T04:22:33.143Z,72.67
2019-02-26T04:25:13.035Z,72.64
2019-02-26T04:28:14.131Z,72.47
2019-02-26T04:30:54.524Z,72.31
2019-02-26T04:33:53.734Z,72.79
2019-02-26T04:36:39.130Z,73.23
2019-02-26T04:39:51.964Z,73.69
2019-02-26T04:42:28.903Z,73.76
2019-02-26T04:45:09.746Z,73.60
2019-02-26T04:48:00.737Z,73.58
2019-02-26T04:50:33.049Z,73.47
2019-02-26T04:53:04.947Z,73.44
2019-02-26T04:55:36.090Z,73.53
2019-02-26T04:58:04.703Z,73.59
2019-02-26T05:00:38.362Z,73.67
2019-02-26T05:03:08.600Z,73.74
2019-02-26T05:05:38.302Z,73.77
2019-02-26T05:08:10.466Z,73.69
2019-02-26T05:10:39.301Z,73.87
2019-02-26T05:13:09.704Z,74.00
2019-02-26T05:15:39.645Z,74.12
2019-02-26T05:18:09.211Z,74.30
2019-02-26T05:20:40.084Z,74.26
2019-02-26T05:23:10.363Z,74.24
2019-02-26T05:25:42.369Z,74.21
2019-02-26T05:28:14.126Z,74.07
2019-02-26T05:30:45.747Z,74.23
2019-02-26T05:33:18.365Z,74.49
2019-02-26T05:35:48.977Z,74.60
2019-02-26T05:38:20.781Z,74.70
2019-02-26T05:40:53.113Z,74.71
2019-02-26T05:43:23.068Z,74.80
2019-02-26T05:45:58.111Z,74.87
2019-02-26T05:48:28.178Z,74.87
2019-02-26T05:51:00.051Z,74.87
2019-02-26T05:53:29.292Z,74.77
2019-02-26T05:55:59.103Z,74.63
2019-02-26T05:58:29.120Z,74.83
2019-02-26T06:00:59.123Z,75.22
2019-02-26T06:03:29.343Z,75.48
2019-02-26T06:06:00.733Z,75.48
2019-02-26T06:08:33.681Z,75.15
2019-02-26T06:11:05.228Z,74.73
2019-02-26T06:13:41.111Z,74.75
2019-02-26T06:16:07.598Z,74.88
2019-02-26T06:18:41.166Z,74.87
2019-02-26T06:21:09.391Z,74.87
2019-02-26T06:23:39.380Z,74.88
2019-02-26T06:26:13.990Z,74.84
2019-02-26T06:28:43.485Z,74.84
2019-02-26T06:31:14.632Z,74.76
2019-02-26T06:33:47.208Z,74.71
2019-02-26T06:36:18.626Z,74.76
2019-02-26T06:38:49.632Z,74.81
2019-02-26T06:41:19.345Z,74.95
2019-02-26T06:43:50.276Z,74.93
2019-02-26T06:46:20.557Z,74.83
2019-02-26T06:48:50.401Z,74.86
2019-02-26T06:51:22.082Z,75.09
2019-02-26T06:53:52.266Z,75.26
2019-02-26T06:56:22.849Z,75.33
2019-02-26T06:58:52.711Z,75.42
2019-02-26T07:01:22.313Z,75.32
2019-02-26T07:03:53.899Z,75.40
2019-02-26T07:06:25.575Z,75.54
2019-02-26T07:08:59.105Z,75.55
2019-02-26T07:11:31.479Z,75.24
2019-02-26T07:14:05.563Z,74.93
2019-02-26T07:16:39.788Z,74.69
2019-02-26T07:19:09.191Z,74.63
2019-02-26T07:21:40.660Z,74.46
2019-02-26T07:24:11.796Z,74.83
2019-02-26T07:26:45.873Z,75.25
2019-02-26T07:29:17.529Z,75.64
2019-02-26T07:31:49.511Z,75.84
2019-02-26T07:34:22.701Z,75.80
2019-02-26T07:36:52.893Z,75.91
2019-02-26T07:39:22.924Z,75.81
2019-02-26T07:41:54.397Z,76.18
2019-02-26T07:44:25.945Z,76.54
2019-02-26T07:46:55.610Z,76.27
2019-02-26T07:49:25.449Z,76.10
2019-02-26T07:51:57.752Z,75.80
2019-02-26T07:54:28.730Z,75.42
2019-02-26T07:57:02.614Z,75.21
2019-02-26T07:59:32.430Z,75.03
2019-02-26T08:02:03.604Z,74.70
2019-02-26T08:04:34.504Z,74.39
2019-02-26T08:07:04.471Z,74.03
2019-02-26T08:09:34.128Z,73.74
2019-02-26T08:12:08.980Z,73.29
2019-02-26T08:14:40.195Z,72.97
2019-02-26T08:17:09.558Z,72.55
2019-02-26T08:19:39.812Z,71.61
2019-02-26T08:22:10.549Z,70.89
2019-02-26T08:24:40.103Z,70.19
2019-02-26T08:27:11.614Z,69.30
2019-02-26T08:29:41.231Z,68.84
2019-02-26T08:32:13.716Z,68.79
2019-02-26T08:34:42.296Z,68.30
2019-02-26T08:37:12.220Z,67.83
2019-02-26T08:39:42.235Z,67.40
2019-02-26T08:42:11.886Z,66.97
2019-02-26T08:44:41.431Z,66.80
2019-02-26T08:47:13.498Z,66.89
2019-02-26T08:49:45.653Z,67.23
2019-02-26T08:52:17.010Z,67.11
2019-02-26T08:54:46.771Z,66.78
2019-02-26T08:57:16.648Z,66.63
2019-02-26T08:59:47.273Z,66.44
2019-02-26T09:02:17.967Z,66.44
2019-02-26T09:04:47.918Z,66.06
2019-02-26T09:07:19.540Z,65.77
2019-02-26T09:09:50.129Z,64.86
2019-02-26T09:12:22.393Z,64.57
2019-02-26T09:14:51.977Z,64.05
2019-02-26T09:17:26.084Z,63.18
2019-02-26T09:20:06.428Z,62.17
2019-02-26T09:22:28.381Z,61.65
2019-02-26T09:24:59.918Z,61.11
2019-02-26T09:27:29.588Z,60.98
2019-02-26T09:30:03.456Z,60.75
2019-02-26T09:32:35.017Z,59.83
2019-02-26T09:35:16.911Z,58.69
2019-02-26T09:37:47.905Z,58.15
2019-02-26T09:40:23.678Z,57.45
2019-02-26T09:42:55.161Z,57.10
2019-02-26T09:45:29.763Z,56.79
2019-02-26T09:48:01.189Z,56.03
2019-02-26T09:50:31.670Z,55.26
2019-02-26T09:53:02.977Z,55.17
2019-02-26T09:55:32.762Z,54.96
2019-02-26T09:58:25.351Z,53.11
2019-02-26T10:00:57.068Z,51.83
2019-02-26T10:03:29.148Z,51.97
2019-02-26T10:05:59.415Z,51.97
2019-02-26T10:08:30.552Z,52.10
2019-02-26T10:11:02.257Z,51.59
2019-02-26T10:13:31.876Z,51.13
2019-02-26T10:16:04.512Z,50.81
2019-02-26T10:18:33.770Z,50.32
2019-02-26T10:21:06.772Z,50.33
2019-02-26T10:23:35.555Z,50.43
2019-02-26T10:26:07.632Z,49.51
2019-02-26T10:28:39.426Z,49.52
2019-02-26T10:31:09.705Z,49.36
2019-02-26T10:33:41.174Z,49.17
2019-02-26T10:36:12.949Z,48.87
2019-02-26T10:38:43.825Z,47.30
2019-02-26T10:41:13.389Z,47.51
2019-02-26T10:43:43.031Z,47.35
2019-02-26T10:46:12.593Z,47.32
2019-02-26T10:48:48.006Z,46.89
2019-02-26T10:51:16.945Z,47.01
2019-02-26T10:53:46.724Z,46.48
2019-02-26T10:56:16.317Z,45.69
2019-02-26T10:58:45.872Z,44.55
2019-02-26T11:01:17.668Z,43.48
2019-02-26T11:03:49.315Z,43.54
2019-02-26T11:06:19.203Z,43.23
2019-02-26T11:08:51.162Z,43.58
2019-02-26T11:11:20.789Z,43.57
2019-02-26T11:13:53.644Z,43.92
2019-02-26T11:16:25.324Z,44.54
2019-02-26T11:18:54.600Z,44.87
2019-02-26T11:21:24.156Z,44.44
2019-02-26T11:23:53.748Z,43.62
2019-02-26T11:26:23.321Z,43.43
2019-02-26T11:28:52.923Z,43.66
2019-02-26T11:31:25.311Z,43.24
2019-02-26T11:33:56.369Z,43.43
2019-02-26T11:36:28.089Z,43.05
2019-02-26T11:38:59.920Z,43.13
2019-02-26T11:41:31.209Z,43.25
2019-02-26T11:44:01.265Z,43.40
2019-02-26T11:46:34.315Z,42.84
2019-02-26T11:49:02.098Z,42.44
2019-02-26T11:51:37.175Z,41.82
2019-02-26T11:54:05.067Z,41.88
2019-02-26T11:56:34.779Z,41.51
2019-02-26T11:59:06.729Z,41.81
2019-02-26T12:01:37.406Z,41.32
2019-02-26T12:04:11.427Z,40.99
2019-02-26T12:06:40.538Z,41.18
2019-02-26T12:09:11.503Z,41.67
2019-02-26T12:11:42.633Z,41.97
2019-02-26T12:14:13.769Z,42.03
2019-02-26T12:16:44.614Z,41.53
2019-02-26T12:19:14.212Z,41.74
2019-02-26T12:21:44.847Z,41.60
2019-02-26T12:24:15.854Z,41.52
2019-02-26T12:26:47.723Z,41.42
2019-02-26T12:29:21.033Z,40.96
2019-02-26T12:31:52.930Z,40.43
2019-02-26T12:34:23.753Z,40.63
2019-02-26T12:39:29.165Z,40.17
2019-02-26T12:41:59.468Z,40.01
2019-02-26T12:44:31.724Z,39.85
2019-02-26T12:47:02.062Z,40.12
2019-02-26T12:49:33.311Z,40.50
2019-02-26T12:52:03.824Z,40.43
2019-02-26T12:54:37.013Z,39.91
2019-02-26T12:57:04.651Z,39.75
2019-02-26T12:59:38.830Z,40.42
2019-02-26T13:04:39.081Z,41.19
2019-02-26T13:07:09.376Z,41.30
2019-02-26T13:09:46.860Z,41.25
2019-02-26T13:12:14.150Z,40.87
2019-02-26T13:14:43.050Z,40.35
2019-02-26T13:17:13.827Z,40.54
2019-02-26T13:19:44.126Z,39.95
2019-02-26T13:22:20.272Z,40.32
2019-02-26T13:24:48.966Z,40.22
2019-02-26T13:27:18.543Z,40.37
2019-02-26T13:29:54.553Z,40.37
2019-02-26T13:32:21.317Z,39.89
2019-02-26T13:34:52.484Z,39.43
2019-02-26T13:37:26.735Z,39.62
2019-02-26T13:39:55.707Z,39.16
2019-02-26T13:42:25.810Z,38.73
2019-02-26T13:44:55.333Z,38.46
2019-02-26T13:47:25.537Z,38.61
2019-02-26T13:49:55.770Z,38.79
2019-02-26T13:52:25.913Z,38.34
2019-02-26T13:54:55.848Z,38.74
2019-02-26T13:57:26.535Z,38.35
2019-02-26T13:59:56.760Z,37.84
2019-02-26T14:02:27.050Z,38.16
2019-02-26T14:04:56.562Z,38.64
2019-02-26T14:07:26.367Z,38.45
2019-02-26T14:09:55.932Z,38.79
2019-02-26T14:12:25.936Z,37.95
2019-02-26T14:14:55.461Z,37.58
2019-02-26T14:17:25.392Z,37.71
2019-02-26T14:19:55.406Z,37.59
2019-02-26T14:22:25.167Z,37.64
2019-02-26T14:24:55.180Z,37.62
2019-02-26T14:27:25.261Z,37.82
2019-02-26T14:29:55.170Z,38.37
2019-02-26T14:32:24.791Z,38.60
2019-02-26T14:34:54.653Z,38.47
2019-02-26T14:37:24.393Z,38.67
2019-02-26T14:39:53.942Z,38.92
2019-02-26T14:42:23.815Z,39.00
2019-02-26T14:44:53.646Z,38.98
2019-02-26T14:47:24.448Z,39.17
2019-02-26T14:49:54.033Z,38.88
2019-02-26T14:52:23.580Z,38.84
2019-02-26T14:54:55.726Z,38.96
2019-02-26T14:57:25.544Z,39.41
2019-02-26T14:59:55.092Z,39.60
2019-02-26T15:02:24.708Z,39.70
2019-02-26T15:04:54.249Z,39.27
2019-02-26T15:07:23.962Z,39.67
2019-02-26T15:09:53.514Z,39.51
2019-02-26T15:12:23.089Z,39.49
2019-02-26T15:14:52.644Z,39.22
2019-02-26T15:17:23.015Z,38.80
2019-02-26T15:19:53.288Z,39.00
2019-02-26T15:22:22.846Z,38.42
2019-02-26T15:24:52.413Z,38.10
2019-02-26T15:27:22.586Z,37.96
2019-02-26T15:29:52.744Z,37.15
2019-02-26T15:32:22.277Z,36.60
2019-02-26T15:34:51.842Z,37.02
2019-02-26T15:37:21.398Z,36.74
2019-02-26T15:39:51.363Z,36.66
2019-02-26T15:42:21.115Z,36.50
2019-02-26T15:44:50.840Z,37.11
2019-02-26T15:47:23.372Z,37.96
2019-02-26T15:49:52.922Z,38.39
2019-02-26T15:52:22.646Z,38.83
2019-02-26T15:54:52.233Z,39.05
2019-02-26T15:57:22.122Z,38.85
2019-02-26T15:59:51.762Z,38.81
2019-02-26T16:02:22.016Z,38.94
2019-02-26T16:04:51.879Z,39.22
2019-02-26T16:07:23.204Z,39.26
2019-02-26T16:09:52.837Z,39.36
2019-02-26T16:12:22.580Z,39.60
2019-02-26T16:14:52.450Z,39.44
2019-02-26T16:17:22.071Z,39.15
2019-02-26T16:19:51.629Z,39.14
2019-02-26T16:22:25.879Z,39.18
2019-02-26T16:24:56.823Z,39.39
2019-02-26T16:27:26.359Z,39.74
2019-02-26T16:29:55.934Z,39.99
2019-02-26T16:32:25.927Z,39.89
2019-02-26T16:34:55.457Z,40.08
2019-02-26T16:37:25.233Z,40.04
2019-02-26T16:39:56.037Z,39.49
2019-02-26T16:42:26.691Z,39.11
2019-02-26T16:44:58.618Z,39.00
2019-02-26T16:47:28.527Z,38.75
2019-02-26T16:50:11.721Z,38.97
2019-02-26T16:52:32.244Z,39.31
2019-02-26T16:55:01.859Z,39.87
2019-02-26T16:57:31.404Z,40.27
2019-02-26T17:00:01.269Z,40.63
2019-02-26T17:02:30.938Z,40.98
2019-02-26T17:05:00.812Z,41.47
2019-02-26T17:07:32.238Z,42.10
2019-02-26T17:10:09.563Z,42.75
2019-02-26T17:12:39.124Z,43.42
2019-02-26T17:15:13.406Z,43.67
2019-02-26T17:17:42.983Z,43.80
2019-02-26T17:20:12.518Z,43.53
2019-02-26T17:22:42.522Z,43.40
2019-02-26T17:25:12.303Z,43.31
2019-02-26T17:27:41.871Z,43.38
2019-02-26T17:30:20.824Z,43.40
2019-02-26T17:32:52.965Z,43.73
2019-02-26T17:35:22.495Z,44.17
2019-02-26T17:37:52.072Z,44.63
2019-02-26T17:40:23.537Z,44.79
2019-02-26T17:42:54.328Z,45.11
2019-02-26T17:45:30.682Z,45.61
2019-02-26T17:48:00.303Z,46.13
2019-02-26T17:50:39.073Z,46.46
2019-02-26T17:53:08.967Z,46.99
2019-02-26T17:55:38.526Z,47.58
2019-02-26T17:58:10.569Z,47.89
2019-02-26T18:00:43.678Z,48.24
2019-02-26T18:03:14.635Z,48.11
2019-02-26T18:05:51.421Z,48.10
2019-02-26T18:08:19.094Z,48.41
2019-02-26T18:10:49.095Z,48.91
2019-02-26T18:13:20.635Z,49.09
2019-02-26T18:15:49.941Z,49.01
2019-02-26T18:18:19.853Z,48.93
2019-02-26T18:20:49.383Z,49.01
2019-02-26T18:23:18.996Z,49.29
2019-02-26T18:25:48.575Z,49.55
2019-02-26T18:28:18.225Z,50.01
2019-02-26T18:30:47.798Z,50.35
2019-02-26T18:33:18.532Z,50.51
2019-02-26T18:35:48.075Z,50.74
2019-02-26T18:38:18.077Z,51.44
2019-02-26T18:40:47.701Z,51.95
2019-02-26T18:43:17.308Z,52.26
2019-02-26T18:45:46.889Z,52.46
2019-02-26T18:48:16.462Z,52.39
2019-02-26T18:50:47.924Z,52.52
2019-02-26T18:53:17.527Z,52.65
2019-02-26T18:55:47.148Z,53.31
2019-02-26T18:58:17.058Z,53.92
2019-02-26T19:00:46.699Z,54.37
2019-02-26T19:03:16.315Z,54.52
2019-02-26T19:05:45.865Z,54.55
2019-02-26T19:08:15.444Z,54.65
2019-02-26T19:10:44.977Z,54.80
2019-02-26T19:13:14.810Z,54.92
2019-02-26T19:15:47.513Z,54.95
2019-02-26T19:18:16.236Z,54.96
2019-02-26T19:20:48.932Z,55.12
2019-02-26T19:23:17.090Z,55.53
2019-02-26T19:25:46.648Z,55.93
2019-02-26T19:28:18.211Z,55.99
2019-02-26T19:30:49.443Z,55.91
2019-02-26T19:33:21.700Z,56.00
2019-02-26T19:35:50.268Z,56.21
2019-02-26T19:38:19.843Z,56.52
2019-02-26T19:40:54.026Z,56.69
2019-02-26T19:43:23.740Z,56.96
2019-02-26T19:45:54.854Z,57.34
2019-02-26T19:48:24.422Z,57.62
2019-02-26T19:50:53.994Z,57.92
2019-02-26T19:53:23.816Z,58.24
2019-02-26T19:55:53.640Z,58.46
2019-02-26T19:58:23.534Z,58.39
2019-02-26T20:00:53.825Z,58.23
2019-02-26T20:03:23.481Z,58.41
2019-02-26T20:05:53.040Z,58.61
2019-02-26T20:08:22.586Z,58.79
2019-02-26T20:10:54.087Z,58.66
2019-02-26T20:13:25.642Z,58.70
2019-02-26T20:15:55.431Z,58.87
2019-02-26T20:18:26.023Z,58.83
2019-02-26T20:20:56.201Z,58.77
2019-02-26T20:23:25.768Z,58.85
2019-02-26T20:25:55.362Z,59.00
2019-02-26T20:28:24.897Z,59.15
2019-02-26T20:30:54.505Z,59.25
2019-02-26T20:33:24.050Z,59.20
2019-02-26T20:35:53.622Z,59.04
2019-02-26T20:38:24.185Z,59.21
2019-02-26T20:40:54.890Z,59.53
2019-02-26T20:43:26.163Z,59.83
2019-02-26T20:45:56.948Z,60.11
2019-02-26T20:48:26.481Z,60.40
2019-02-26T20:50:56.571Z,60.58
2019-02-26T20:53:30.703Z,60.72
2019-02-26T20:55:58.239Z,61.03
2019-02-26T20:58:27.822Z,61.11
2019-02-26T21:00:58.894Z,61.01
2019-02-26T21:03:28.919Z,60.95
2019-02-26T21:05:58.511Z,61.11
2019-02-26T21:08:30.681Z,61.22
2019-02-26T21:11:00.913Z,61.38
2019-02-26T21:13:34.645Z,61.43
2019-02-26T21:16:02.060Z,61.65
2019-02-26T21:18:34.764Z,61.91
2019-02-26T21:21:04.376Z,62.04
2019-02-26T21:23:38.496Z,61.97
2019-02-26T21:26:09.219Z,61.92
2019-02-26T21:28:39.208Z,62.04
2019-02-26T21:31:09.884Z,62.01
2019-02-26T21:33:39.397Z,62.08
2019-02-26T21:36:08.993Z,62.19
2019-02-26T21:38:39.223Z,62.32
2019-02-26T21:41:08.743Z,62.38
2019-02-26T21:43:38.319Z,62.46
2019-02-26T21:46:07.902Z,62.46
2019-02-26T21:48:43.642Z,62.51
2019-02-26T21:51:10.396Z,62.61
2019-02-26T21:53:40.391Z,62.73
2019-02-26T21:56:11.299Z,62.72
2019-02-26T21:58:42.955Z,62.72
2019-02-26T22:01:13.883Z,62.83
2019-02-26T22:03:43.444Z,63.05
2019-02-26T22:06:12.999Z,63.13
2019-02-26T22:08:42.558Z,63.22
2019-02-26T22:11:12.124Z,63.59
2019-02-26T22:13:41.663Z,63.92
2019-02-26T22:16:11.584Z,64.14
2019-02-26T22:18:41.132Z,64.25
2019-02-26T22:21:10.680Z,64.20
2019-02-26T22:23:40.211Z,64.10
2019-02-26T22:26:09.782Z,64.03
2019-02-26T22:28:42.655Z,64.25
2019-02-26T22:31:12.698Z,64.57
2019-02-26T22:33:46.183Z,64.65
2019-02-26T22:36:14.732Z,64.97
2019-02-26T22:38:46.158Z,65.38
2019-02-26T22:41:18.815Z,65.40
2019-02-26T22:43:48.525Z,65.38
2019-02-26T22:46:18.068Z,65.55
2019-02-26T22:48:48.838Z,65.63
2019-02-26T22:51:18.743Z,65.77
2019-02-26T22:53:48.338Z,65.88
2019-02-26T22:56:21.956Z,65.93
2019-02-26T22:58:52.458Z,65.67
2019-02-26T23:01:36.218Z,65.78
2019-02-26T23:04:03.563Z,65.83
2019-02-26T23:06:33.126Z,65.92
2019-02-26T23:09:03.616Z,66.02
2019-02-26T23:11:33.484Z,66.05
2019-02-26T23:14:04.914Z,66.28
2019-02-26T23:16:35.687Z,66.35
2019-02-26T23:19:05.794Z,66.38
2019-02-26T23:21:35.638Z,66.71
2019-02-26T23:24:05.399Z,66.92
2019-02-26T23:26:35.095Z,67.02
2019-02-26T23:29:04.712Z,67.04
2019-02-26T23:31:34.335Z,67.21
2019-02-26T23:34:05.745Z,67.12
2019-02-26T23:36:35.327Z,67.14
2019-02-26T23:39:07.116Z,67.29
2019-02-26T23:41:36.865Z,67.37
2019-02-26T23:44:06.459Z,67.45
2019-02-26T23:46:36.051Z,67.44
2019-02-26T23:49:05.664Z,67.35
2019-02-26T23:51:35.198Z,67.33
2019-02-26T23:54:07.315Z,67.33
2019-02-26T23:56:36.138Z,67.50
2019-02-26T23:59:05.683Z,67.60
